Time;durP1;ratioP1;P1;durP2;ratioP2;P2;SDS_P1;SDS_P2;PMS_P1;PMS_P2;Temp;Humidity;BMP_temperature;BMP_pressure;BME280_temperature;BME280_humidity;BME280_pressure;Samples;Min_cycle;Max_cycle;Signal;HPM_P1;HPM_P2
2023/10/21 00:00:30;;;;;;;15.82;2.30;;;10.30;99.90;;;;;;5060603;28;20028;-78
2023/10/21 00:02:56;;;;;;;6.97;1.80;;;10.40;99.90;;;;;;5068784;28;20029;-77
2023/10/21 00:05:22;;;;;;;15.57;2.13;;;10.40;99.90;;;;;;5072760;28;20028;-76
2023/10/21 00:07:47;;;;;;;10.82;2.10;;;10.40;99.90;;;;;;5072710;28;20028;-76
2023/10/21 00:10:13;;;;;;;12.05;1.77;;;10.40;99.90;;;;;;5073380;28;20039;-76
2023/10/21 00:12:39;;;;;;;11.23;2.20;;;10.40;99.90;;;;;;5073269;28;20106;-76
2023/10/21 00:15:09;;;;;;;11.02;2.10;;;10.40;99.90;;;;;;5072484;28;20035;-76
2023/10/21 00:17:35;;;;;;;9.90;2.38;;;10.40;99.90;;;;;;5073756;28;20115;-76
2023/10/21 00:20:09;;;;;;;15.35;2.35;;;10.40;99.90;;;;;;5072850;28;20092;-77
2023/10/21 00:22:38;;;;;;;7.85;2.08;;;10.40;99.90;;;;;;5073143;28;20034;-76
2023/10/21 00:25:04;;;;;;;12.00;2.35;;;10.40;99.90;;;;;;5072868;28;20025;-77
2023/10/21 00:27:30;;;;;;;13.07;2.45;;;10.40;99.90;;;;;;5073054;28;20040;-77
2023/10/21 00:29:56;;;;;;;13.40;1.83;;;10.40;99.90;;;;;;5063840;28;20372;-76
2023/10/21 00:32:22;;;;;;;13.10;2.38;;;10.40;99.90;;;;;;5068612;28;20344;-77
2023/10/21 00:34:49;;;;;;;10.25;1.98;;;10.40;99.90;;;;;;5073171;28;20025;-77
2023/10/21 00:37:15;;;;;;;9.20;2.33;;;10.40;99.90;;;;;;5072589;28;20090;-78
2023/10/21 00:39:42;;;;;;;12.50;1.67;;;10.40;99.90;;;;;;5072966;28;20405;-78
2023/10/21 00:42:08;;;;;;;7.70;1.77;;;10.30;99.90;;;;;;5072580;28;20183;-77
2023/10/21 00:44:34;;;;;;;8.80;1.98;;;10.30;99.90;;;;;;5055012;28;20108;-78
2023/10/21 00:47:00;;;;;;;11.10;2.03;;;10.30;99.90;;;;;;5072385;28;20454;-78
2023/10/21 00:49:30;;;;;;;8.50;1.55;;;10.40;99.90;;;;;;5072979;28;20029;-77
2023/10/21 00:51:57;;;;;;;9.77;1.95;;;10.40;99.90;;;;;;5055397;28;20081;-78
2023/10/21 00:54:25;;;;;;;10.10;1.80;;;10.40;99.90;;;;;;5072315;28;20029;-78
2023/10/21 00:56:51;;;;;;;10.10;1.90;;;10.40;99.90;;;;;;5073431;28;20048;-78
2023/10/21 00:59:18;;;;;;;15.38;2.25;;;10.40;99.90;;;;;;5070983;28;20442;-77
2023/10/21 01:01:44;;;;;;;6.22;1.70;;;10.40;99.90;;;;;;5061385;28;20099;-77
2023/10/21 01:04:13;;;;;;;11.13;1.60;;;10.40;99.90;;;;;;5052361;28;20108;-78
2023/10/21 01:06:38;;;;;;;10.20;1.50;;;10.30;99.90;;;;;;5053300;28;20017;-78
2023/10/21 01:09:04;;;;;;;11.18;1.73;;;10.40;99.90;;;;;;5053442;28;20036;-78
2023/10/21 01:11:30;;;;;;;12.07;2.00;;;10.40;99.90;;;;;;5054090;28;20056;-76
2023/10/21 01:13:56;;;;;;;8.07;1.75;;;10.40;99.90;;;;;;5053482;28;20405;-77
2023/10/21 01:16:22;;;;;;;12.80;2.47;;;10.40;99.90;;;;;;5050941;28;20048;-77
2023/10/21 01:18:48;;;;;;;7.07;1.50;;;10.40;99.90;;;;;;5052956;28;20056;-78
2023/10/21 01:21:14;;;;;;;7.53;1.42;;;10.40;99.90;;;;;;5052065;28;20476;-77
2023/10/21 01:23:39;;;;;;;11.48;2.33;;;10.40;99.90;;;;;;5052587;28;20021;-76
2023/10/21 01:26:06;;;;;;;14.50;2.42;;;10.40;99.90;;;;;;5034137;28;20029;-77
2023/10/21 01:28:35;;;;;;;13.43;2.17;;;10.40;99.90;;;;;;5052507;28;20064;-77
2023/10/21 01:31:02;;;;;;;14.15;1.75;;;10.40;99.90;;;;;;5044420;28;20032;-77
2023/10/21 01:33:28;;;;;;;9.52;1.98;;;10.40;99.90;;;;;;5072803;28;20052;-77
2023/10/21 01:35:54;;;;;;;13.40;2.30;;;10.40;99.90;;;;;;5072776;28;20059;-77
2023/10/21 01:38:20;;;;;;;7.68;1.40;;;10.40;99.90;;;;;;5072127;28;20068;-77
2023/10/21 01:40:47;;;;;;;12.52;2.47;;;10.40;99.90;;;;;;5072654;28;20028;-77
2023/10/21 01:43:13;;;;;;;15.40;2.00;;;10.40;99.90;;;;;;5071821;28;20093;-77
2023/10/21 01:45:39;;;;;;;9.15;1.75;;;10.40;99.90;;;;;;5072366;28;20025;-77
2023/10/21 01:48:05;;;;;;;11.48;1.88;;;10.40;99.90;;;;;;5071515;28;20055;-77
2023/10/21 01:50:31;;;;;;;10.45;1.85;;;10.40;99.90;;;;;;5071866;28;20036;-76
2023/10/21 01:52:58;;;;;;;15.10;3.30;;;10.40;99.90;;;;;;5054017;28;20025;-76
2023/10/21 01:55:24;;;;;;;9.63;1.95;;;10.40;99.90;;;;;;5049988;28;20098;-76
2023/10/21 01:57:50;;;;;;;9.95;1.90;;;10.40;99.90;;;;;;5052197;28;20174;-77
2023/10/21 02:00:19;;;;;;;12.95;3.05;;;10.40;99.90;;;;;;5049362;28;20029;-76
2023/10/21 02:02:49;;;;;;;10.45;1.75;;;10.40;99.90;;;;;;5048806;28;20029;-76
2023/10/21 02:05:15;;;;;;;13.70;2.08;;;10.40;99.90;;;;;;5051482;28;20100;-77
2023/10/21 02:07:41;;;;;;;6.63;1.80;;;10.40;99.90;;;;;;5051917;28;20028;-77
2023/10/21 02:10:06;;;;;;;13.50;1.90;;;10.40;99.90;;;;;;5052421;28;20128;-77
2023/10/21 02:12:32;;;;;;;14.25;1.85;;;10.40;99.90;;;;;;5034217;28;20357;-77
2023/10/21 02:14:58;;;;;;;10.98;1.80;;;10.40;99.90;;;;;;5051874;28;20033;-77
2023/10/21 02:17:24;;;;;;;9.27;1.75;;;10.50;99.90;;;;;;5033287;28;20095;-78
2023/10/21 02:19:56;;;;;;;11.13;1.80;;;10.40;99.90;;;;;;5052021;28;20020;-77
2023/10/21 02:22:26;;;;;;;8.80;1.80;;;10.40;99.90;;;;;;5016740;28;20025;-77
2023/10/21 02:24:56;;;;;;;12.32;1.90;;;10.40;99.90;;;;;;5051454;28;20321;-77
2023/10/21 02:27:21;;;;;;;8.10;1.50;;;10.40;99.90;;;;;;5049943;28;20409;-77
2023/10/21 02:29:48;;;;;;;9.45;1.73;;;10.40;99.90;;;;;;5051579;28;20033;-77
2023/10/21 02:32:13;;;;;;;9.25;1.90;;;10.40;99.90;;;;;;5036873;28;20468;-77
2023/10/21 02:34:39;;;;;;;7.20;1.70;;;10.50;99.90;;;;;;5050942;28;20112;-77
2023/10/21 02:37:05;;;;;;;13.60;2.05;;;10.40;99.90;;;;;;5051232;28;20135;-77
2023/10/21 02:39:31;;;;;;;16.25;2.05;;;10.40;99.90;;;;;;5051007;28;20321;-78
2023/10/21 02:41:56;;;;;;;8.82;2.00;;;10.30;99.90;;;;;;5051120;28;20032;-77
2023/10/21 02:44:22;;;;;;;5.90;1.90;;;10.30;99.90;;;;;;5050227;28;20028;-77
2023/10/21 02:46:50;;;;;;;12.75;2.15;;;10.30;99.90;;;;;;5050845;28;20086;-78
2023/10/21 02:49:16;;;;;;;10.82;2.05;;;10.20;99.90;;;;;;5050526;28;20075;-78
2023/10/21 02:51:42;;;;;;;9.50;1.60;;;10.20;99.90;;;;;;5051036;28;20472;-77
2023/10/21 02:54:07;;;;;;;12.18;1.80;;;10.30;99.90;;;;;;5050365;28;20101;-78
2023/10/21 02:56:34;;;;;;;18.63;2.65;;;10.30;99.90;;;;;;5063665;28;20478;-77
2023/10/21 02:59:00;;;;;;;12.13;1.98;;;10.20;99.90;;;;;;5070756;28;20028;-77
2023/10/21 03:01:25;;;;;;;13.75;2.00;;;10.20;99.90;;;;;;5067518;28;20024;-77
2023/10/21 03:03:52;;;;;;;8.48;2.00;;;10.20;99.90;;;;;;5059309;28;20475;-78
2023/10/21 03:06:21;;;;;;;10.85;2.05;;;10.10;99.90;;;;;;5050518;28;20079;-78
2023/10/21 03:08:47;;;;;;;14.18;2.10;;;10.10;99.90;;;;;;5050843;28;20067;-78
2023/10/21 03:11:14;;;;;;;13.57;2.35;;;10.00;99.90;;;;;;5050423;28;20445;-78
2023/10/21 03:13:39;;;;;;;17.88;1.98;;;10.00;99.90;;;;;;5050820;28;20506;-78
2023/10/21 03:16:09;;;;;;;9.63;2.08;;;9.90;99.90;;;;;;5050899;28;20063;-77
2023/10/21 03:18:36;;;;;;;13.50;2.10;;;9.90;99.90;;;;;;5049697;28;20029;-77
2023/10/21 03:21:03;;;;;;;13.13;2.63;;;9.80;99.90;;;;;;5050012;28;20356;-78
2023/10/21 03:23:29;;;;;;;15.38;2.35;;;9.80;99.90;;;;;;5049798;28;20033;-80
2023/10/21 03:25:56;;;;;;;11.57;2.00;;;9.80;99.90;;;;;;5050344;28;20025;-82
2023/10/21 03:28:22;;;;;;;9.48;2.05;;;9.70;99.90;;;;;;5031951;28;20029;-80
2023/10/21 03:30:48;;;;;;;7.63;1.55;;;9.70;99.90;;;;;;5050274;28;20537;-79
2023/10/21 03:33:14;;;;;;;9.98;1.70;;;9.70;99.90;;;;;;5053090;28;20041;-80
2023/10/21 03:35:39;;;;;;;11.38;1.70;;;9.70;99.90;;;;;;5069964;28;20032;-82
2023/10/21 03:38:05;;;;;;;10.40;1.95;;;9.60;99.90;;;;;;5070307;28;20123;-83
2023/10/21 03:40:31;;;;;;;10.23;1.60;;;9.60;99.90;;;;;;5069905;28;20253;-79
2023/10/21 03:42:56;;;;;;;12.35;1.90;;;9.50;99.90;;;;;;5070220;28;20396;-78
2023/10/21 03:45:22;;;;;;;15.05;1.60;;;9.60;99.90;;;;;;5069936;28;20143;-88
2023/10/21 03:47:48;;;;;;;9.45;2.13;;;9.50;99.90;;;;;;5052769;28;20075;-86
2023/10/21 03:50:14;;;;;;;10.25;2.00;;;9.50;99.90;;;;;;5052125;28;20108;-88
2023/10/21 03:52:40;;;;;;;11.05;2.17;;;9.50;99.90;;;;;;5070084;28;20345;-80
2023/10/21 03:55:06;;;;;;;9.45;2.05;;;9.40;99.90;;;;;;5070022;28;20028;-89
2023/10/21 03:57:38;;;;;;;8.68;1.83;;;9.40;99.90;;;;;;5052628;28;20016;-89
2023/10/21 04:00:21;;;;;;;5.85;1.40;;;9.20;99.90;;;;;;5053182;28;20024;-90
2023/10/21 04:02:47;;;;;;;13.15;2.05;;;9.30;99.90;;;;;;5048639;28;20060;-90
2023/10/21 04:05:17;;;;;;;4.13;1.17;;;9.10;99.90;;;;;;5062723;28;20063;-90
2023/10/21 04:07:46;;;;;;;7.47;1.63;;;9.10;99.90;;;;;;5052830;28;20517;-89
2023/10/21 04:10:12;;;;;;;7.10;1.30;;;9.00;99.90;;;;;;5070835;28;20036;-87
2023/10/21 04:12:39;;;;;;;10.00;1.17;;;9.00;99.90;;;;;;5069373;28;20366;-81
2023/10/21 04:15:07;;;;;;;8.10;1.38;;;8.80;99.90;;;;;;5070404;28;20489;-80
2023/10/21 04:17:33;;;;;;;9.57;1.42;;;8.80;99.90;;;;;;5069528;28;20038;-79
2023/10/21 04:19:59;;;;;;;6.88;1.30;;;8.80;99.90;;;;;;5069966;28;20100;-78
2023/10/21 04:22:25;;;;;;;9.60;1.33;;;8.70;99.90;;;;;;5069149;28;20020;-78
2023/10/21 04:24:51;;;;;;;11.32;1.40;;;8.70;99.90;;;;;;5069813;28;20029;-78
2023/10/21 04:27:17;;;;;;;4.68;1.42;;;8.90;99.90;;;;;;5069152;28;20107;-77
2023/10/21 04:29:42;;;;;;;5.97;0.93;;;8.60;99.90;;;;;;5069510;28;20033;-78
2023/10/21 04:32:08;;;;;;;8.00;1.38;;;8.60;99.90;;;;;;5069280;28;20032;-78
2023/10/21 04:34:34;;;;;;;4.30;1.10;;;8.60;99.90;;;;;;5057074;28;20047;-77
2023/10/21 04:37:00;;;;;;;4.38;1.05;;;8.70;99.90;;;;;;5064158;28;20118;-78
2023/10/21 04:39:28;;;;;;;4.25;1.17;;;8.50;99.90;;;;;;5069195;28;20116;-78
2023/10/21 04:41:54;;;;;;;8.05;1.20;;;8.50;99.90;;;;;;5069692;28;20543;-78
2023/10/21 04:44:20;;;;;;;9.35;1.30;;;8.50;99.90;;;;;;5069207;28;20067;-77
2023/10/21 04:46:46;;;;;;;6.20;1.38;;;8.40;99.90;;;;;;5069480;28;20111;-78
2023/10/21 04:49:13;;;;;;;8.32;0.90;;;8.50;99.90;;;;;;5069515;28;20040;-78
2023/10/21 04:51:40;;;;;;;3.05;1.00;;;8.30;99.90;;;;;;5072938;28;20024;-78
2023/10/21 04:54:07;;;;;;;5.60;1.00;;;8.30;99.90;;;;;;5073312;28;20036;-78
2023/10/21 04:56:33;;;;;;;2.58;0.85;;;8.30;99.90;;;;;;5072551;28;20183;-77
2023/10/21 04:58:59;;;;;;;4.40;0.60;;;8.30;99.90;;;;;;5073639;28;20107;-78
2023/10/21 05:01:25;;;;;;;5.07;1.08;;;8.30;99.90;;;;;;5072371;28;20029;-78
2023/10/21 05:03:50;;;;;;;7.25;1.33;;;8.10;99.90;;;;;;5067773;28;20310;-77
2023/10/21 05:06:16;;;;;;;4.78;0.98;;;8.20;99.90;;;;;;5072705;28;20024;-77
2023/10/21 05:08:42;;;;;;;4.25;1.65;;;8.20;99.90;;;;;;5073354;28;20024;-77
2023/10/21 05:11:08;;;;;;;6.50;1.10;;;8.10;99.90;;;;;;5072902;28;20378;-77
2023/10/21 05:13:34;;;;;;;5.45;0.98;;;8.10;99.90;;;;;;5072097;28;20083;-79
2023/10/21 05:15:59;;;;;;;3.38;0.98;;;8.10;99.90;;;;;;5072627;28;20024;-77
2023/10/21 05:18:25;;;;;;;6.90;1.20;;;8.10;99.90;;;;;;5054175;28;20453;-78
2023/10/21 05:20:51;;;;;;;4.07;1.48;;;8.00;99.90;;;;;;5054567;28;20426;-78
2023/10/21 05:23:17;;;;;;;5.57;1.27;;;8.10;99.90;;;;;;5072760;28;20063;-77
2023/10/21 05:25:43;;;;;;;6.78;1.45;;;8.10;99.90;;;;;;5072260;28;20028;-77
2023/10/21 05:28:10;;;;;;;8.52;1.60;;;8.10;99.90;;;;;;5072297;28;20040;-77
2023/10/21 05:30:36;;;;;;;5.65;1.30;;;8.10;99.90;;;;;;5053765;28;20345;-77
2023/10/21 05:33:02;;;;;;;6.18;1.38;;;8.00;99.90;;;;;;5072495;28;20020;-77
2023/10/21 05:35:27;;;;;;;7.30;1.67;;;7.90;99.90;;;;;;5065665;28;20446;-77
2023/10/21 05:37:53;;;;;;;9.25;1.17;;;8.00;99.90;;;;;;5052552;28;20067;-77
2023/10/21 05:40:19;;;;;;;4.47;1.50;;;7.90;99.90;;;;;;5052354;28;20376;-78
2023/10/21 05:42:44;;;;;;;4.43;1.20;;;8.00;99.90;;;;;;5034626;28;20025;-78
2023/10/21 05:45:10;;;;;;;4.28;1.30;;;8.00;99.90;;;;;;5052330;28;20075;-78
2023/10/21 05:47:36;;;;;;;5.00;1.00;;;7.90;99.90;;;;;;5052279;28;20033;-78
2023/10/21 05:50:02;;;;;;;6.30;1.40;;;8.00;99.90;;;;;;5052694;28;20025;-78
2023/10/21 05:52:28;;;;;;;4.78;1.13;;;7.90;99.90;;;;;;5051926;28;20097;-77
2023/10/21 05:54:54;;;;;;;5.15;1.27;;;7.80;99.90;;;;;;5034328;28;20078;-78
2023/10/21 05:57:21;;;;;;;6.32;1.42;;;7.80;99.90;;;;;;5051261;28;20120;-78
2023/10/21 05:59:46;;;;;;;3.80;1.10;;;7.90;99.90;;;;;;5052041;28;20490;-78
2023/10/21 06:02:12;;;;;;;7.85;1.52;;;7.80;99.90;;;;;;5051915;28;20025;-77
2023/10/21 06:04:38;;;;;;;4.78;1.17;;;7.80;99.90;;;;;;5054805;28;20088;-77
2023/10/21 06:07:05;;;;;;;5.28;1.00;;;7.70;99.90;;;;;;5051315;28;20032;-77
2023/10/21 06:09:31;;;;;;;6.05;1.05;;;7.80;99.90;;;;;;5051452;28;20428;-77
2023/10/21 06:11:57;;;;;;;7.78;0.90;;;7.80;99.90;;;;;;5051934;28;20043;-77
2023/10/21 06:14:23;;;;;;;3.22;0.90;;;7.70;99.90;;;;;;5051352;28;20511;-77
2023/10/21 06:16:49;;;;;;;4.93;0.80;;;7.70;99.90;;;;;;5051814;28;20029;-77
2023/10/21 06:19:16;;;;;;;3.60;1.17;;;7.70;99.90;;;;;;5051650;28;20045;-78
2023/10/21 06:21:41;;;;;;;3.08;1.10;;;7.70;99.90;;;;;;5050851;28;20060;-77
2023/10/21 06:24:08;;;;;;;5.07;0.85;;;7.70;99.90;;;;;;5051739;28;20061;-77
2023/10/21 06:26:33;;;;;;;3.80;0.95;;;7.60;99.90;;;;;;5051230;28;20503;-77
2023/10/21 06:29:00;;;;;;;3.17;0.80;;;7.70;99.90;;;;;;5051497;28;20076;-77
2023/10/21 06:31:28;;;;;;;4.30;1.00;;;7.70;99.90;;;;;;5050885;28;20029;-77
2023/10/21 06:33:54;;;;;;;2.92;1.20;;;7.80;99.90;;;;;;5051179;28;20502;-77
2023/10/21 06:36:20;;;;;;;6.20;1.17;;;7.70;99.90;;;;;;5065058;28;20024;-78
2023/10/21 06:38:49;;;;;;;2.80;1.00;;;7.70;99.90;;;;;;5052907;28;20097;-78
2023/10/21 06:41:15;;;;;;;7.53;0.90;;;7.80;99.90;;;;;;5051202;28;20036;-78
2023/10/21 06:43:41;;;;;;;2.92;1.35;;;7.80;99.90;;;;;;5050809;28;20213;-77
2023/10/21 06:46:06;;;;;;;4.50;0.85;;;7.80;99.90;;;;;;5033037;28;20467;-78
2023/10/21 06:48:32;;;;;;;3.30;0.80;;;7.70;99.90;;;;;;5050346;28;20464;-77
2023/10/21 06:50:59;;;;;;;3.38;0.73;;;7.80;99.90;;;;;;5050980;28;20025;-77
2023/10/21 06:53:26;;;;;;;4.65;1.15;;;7.70;99.90;;;;;;5050296;28;20040;-78
2023/10/21 06:55:53;;;;;;;4.68;0.82;;;7.70;99.90;;;;;;5050644;28;20060;-78
2023/10/21 06:58:19;;;;;;;4.95;1.23;;;7.80;99.90;;;;;;5050402;28;20471;-78
2023/10/21 07:00:46;;;;;;;8.43;0.90;;;7.80;99.90;;;;;;5032266;28;20071;-78
2023/10/21 07:03:11;;;;;;;5.78;1.17;;;7.80;99.90;;;;;;5050432;28;20053;-77
2023/10/21 07:05:38;;;;;;;3.47;0.98;;;7.80;99.90;;;;;;5051478;28;20130;-78
2023/10/21 07:08:05;;;;;;;4.65;0.90;;;7.90;99.90;;;;;;5059291;28;20033;-78
2023/10/21 07:10:31;;;;;;;6.25;1.30;;;7.90;99.90;;;;;;5049809;28;20044;-78
2023/10/21 07:12:58;;;;;;;2.47;0.80;;;7.90;99.90;;;;;;5049883;28;20025;-78
2023/10/21 07:15:28;;;;;;;6.00;1.25;;;7.80;99.90;;;;;;5050237;28;20035;-78
2023/10/21 07:17:54;;;;;;;2.92;0.80;;;7.80;99.90;;;;;;5054957;28;20478;-78
2023/10/21 07:20:20;;;;;;;7.93;1.10;;;7.90;99.90;;;;;;5068234;28;20109;-78
2023/10/21 07:22:45;;;;;;;3.22;1.10;;;7.80;99.90;;;;;;5050861;28;20143;-78
2023/10/21 07:25:11;;;;;;;4.00;1.63;;;7.90;99.90;;;;;;5070184;28;20025;-78
2023/10/21 07:27:37;;;;;;;5.78;1.30;;;7.90;99.90;;;;;;5069752;28;20032;-78
2023/10/21 07:30:04;;;;;;;6.00;1.70;;;7.90;99.90;;;;;;5052339;28;20115;-78
2023/10/21 07:32:30;;;;;;;4.25;1.40;;;7.90;99.90;;;;;;5069724;28;20039;-77
2023/10/21 07:34:56;;;;;;;3.33;1.33;;;8.00;99.90;;;;;;5070518;28;20073;-77
2023/10/21 07:37:22;;;;;;;3.88;1.48;;;7.90;99.90;;;;;;5064290;28;20037;-77
2023/10/21 07:39:47;;;;;;;2.75;0.90;;;8.00;99.90;;;;;;5049865;28;20464;-77
2023/10/21 07:42:14;;;;;;;2.85;1.10;;;8.00;99.90;;;;;;5033017;28;20041;-77
2023/10/21 07:44:41;;;;;;;4.15;1.58;;;8.10;99.90;;;;;;5031799;28;20039;-76
2023/10/21 07:47:08;;;;;;;6.15;1.40;;;8.10;99.90;;;;;;5050096;28;20124;-77
2023/10/21 07:49:33;;;;;;;4.03;1.20;;;8.10;99.90;;;;;;5049475;28;20033;-76
2023/10/21 07:52:00;;;;;;;5.82;2.08;;;8.20;99.90;;;;;;5049957;28;20031;-76
2023/10/21 07:54:26;;;;;;;6.72;2.25;;;8.10;99.90;;;;;;5049544;28;20104;-78
2023/10/21 07:56:53;;;;;;;4.88;1.52;;;8.20;99.90;;;;;;5049622;28;20558;-77
2023/10/21 07:59:19;;;;;;;8.15;1.70;;;8.20;99.90;;;;;;5032067;28;20134;-77
2023/10/21 08:01:45;;;;;;;3.35;1.27;;;8.20;99.90;;;;;;5049280;28;20017;-77
2023/10/21 08:04:11;;;;;;;8.18;2.03;;;8.20;99.90;;;;;;5049996;28;20165;-76
2023/10/21 08:06:38;;;;;;;3.95;1.17;;;8.30;99.90;;;;;;5034659;28;20495;-77
2023/10/21 08:09:05;;;;;;;3.90;1.50;;;8.30;99.90;;;;;;5050283;28;20096;-76
2023/10/21 08:11:32;;;;;;;4.57;1.35;;;8.30;99.90;;;;;;5049671;28;20103;-76
2023/10/21 08:13:59;;;;;;;5.13;2.20;;;8.20;99.90;;;;;;5050037;28;20064;-77
2023/10/21 08:16:24;;;;;;;7.60;1.05;;;8.50;99.90;;;;;;5050125;28;20123;-77
2023/10/21 08:18:50;;;;;;;4.32;1.35;;;8.40;99.90;;;;;;5049347;28;20164;-77
2023/10/21 08:21:18;;;;;;;6.78;1.55;;;8.40;99.90;;;;;;5049555;28;20036;-76
2023/10/21 08:23:43;;;;;;;2.53;1.00;;;8.50;99.90;;;;;;5049363;28;20057;-77
2023/10/21 08:26:09;;;;;;;6.85;1.83;;;8.50;99.90;;;;;;5052825;28;20060;-78
2023/10/21 08:28:35;;;;;;;4.43;1.08;;;8.60;99.90;;;;;;5035059;28;20025;-78
2023/10/21 08:31:00;;;;;;;5.65;1.65;;;8.50;99.90;;;;;;5035776;28;20484;-79
2023/10/21 08:33:26;;;;;;;3.72;1.33;;;8.70;99.90;;;;;;5053611;28;20025;-79
2023/10/21 08:35:52;;;;;;;4.47;1.40;;;8.60;99.90;;;;;;5052762;28;20086;-78
2023/10/21 08:38:18;;;;;;;7.45;2.42;;;8.80;99.90;;;;;;5045354;28;20024;-80
2023/10/21 08:40:46;;;;;;;4.20;1.35;;;8.80;99.90;;;;;;5052740;28;20021;-77
2023/10/21 08:43:19;;;;;;;4.50;1.20;;;8.70;99.90;;;;;;5053421;28;20427;-78
2023/10/21 08:45:45;;;;;;;4.53;1.85;;;8.90;99.90;;;;;;5052738;28;20043;-79
2023/10/21 08:48:15;;;;;;;2.78;1.13;;;8.80;99.90;;;;;;5053488;28;20518;-78
2023/10/21 08:50:45;;;;;;;4.10;1.55;;;8.80;99.90;;;;;;5034796;28;20483;-78
2023/10/21 08:53:11;;;;;;;5.13;1.30;;;8.80;99.90;;;;;;5052926;28;20103;-78
2023/10/21 08:55:38;;;;;;;6.07;1.75;;;8.80;99.90;;;;;;5052370;28;20476;-79
2023/10/21 08:58:06;;;;;;;4.28;1.25;;;9.00;99.90;;;;;;5053359;28;20037;-78
2023/10/21 09:00:33;;;;;;;5.63;1.77;;;8.90;99.90;;;;;;5052749;28;20075;-80
2023/10/21 09:03:01;;;;;;;4.95;1.17;;;9.00;99.90;;;;;;5053254;28;20096;-77
2023/10/21 09:05:27;;;;;;;3.83;1.33;;;8.90;99.90;;;;;;5052623;28;20036;-78
2023/10/21 09:07:53;;;;;;;5.60;1.52;;;9.00;99.90;;;;;;5058424;28;20040;-79
2023/10/21 09:10:20;;;;;;;5.32;1.58;;;9.00;99.90;;;;;;5052668;28;20060;-78
2023/10/21 09:12:49;;;;;;;4.50;1.40;;;9.10;99.90;;;;;;5052554;28;20048;-79
2023/10/21 09:15:14;;;;;;;6.65;1.85;;;9.10;99.90;;;;;;5052542;28;20086;-79
2023/10/21 09:17:45;;;;;;;3.92;1.73;;;9.20;99.90;;;;;;5051872;28;20028;-79
2023/10/21 09:20:14;;;;;;;7.70;1.88;;;9.10;99.90;;;;;;5052938;28;20021;-79
2023/10/21 09:22:46;;;;;;;4.35;1.63;;;9.10;99.90;;;;;;5052090;28;20060;-79
2023/10/21 09:25:21;;;;;;;3.42;1.52;;;9.10;99.90;;;;;;5052501;28;20479;-78
2023/10/21 09:27:54;;;;;;;7.63;1.63;;;9.00;99.90;;;;;;5052042;28;20047;-79
2023/10/21 09:30:22;;;;;;;3.95;1.60;;;9.10;99.90;;;;;;5052655;28;20098;-79
2023/10/21 09:32:49;;;;;;;7.60;1.52;;;9.10;99.90;;;;;;5052149;28;20029;-78
2023/10/21 09:35:24;;;;;;;5.05;1.88;;;9.00;99.90;;;;;;5052260;28;20029;-78
2023/10/21 09:37:50;;;;;;;7.15;1.40;;;9.20;99.90;;;;;;5056595;28;20028;-79
2023/10/21 09:40:16;;;;;;;2.25;1.60;;;9.10;99.90;;;;;;5045409;28;20383;-78
2023/10/21 09:42:42;;;;;;;5.53;1.48;;;9.00;99.90;;;;;;5053831;28;20032;-79
2023/10/21 09:45:13;;;;;;;7.03;1.90;;;9.10;99.90;;;;;;5072562;28;20459;-79
2023/10/21 09:47:40;;;;;;;5.55;1.50;;;9.10;99.90;;;;;;5071565;28;20032;-79
2023/10/21 09:50:11;;;;;;;6.10;1.83;;;9.10;99.90;;;;;;5072504;28;20119;-80
2023/10/21 09:52:44;;;;;;;4.85;1.75;;;9.30;99.90;;;;;;5071919;28;20111;-79
2023/10/21 09:55:11;;;;;;;4.60;1.30;;;9.30;99.90;;;;;;5072035;28;20032;-79
2023/10/21 09:57:37;;;;;;;5.47;2.03;;;9.40;99.90;;;;;;5071408;28;20056;-79
2023/10/21 10:00:07;;;;;;;5.10;1.70;;;9.50;99.90;;;;;;5071765;28;20032;-79
2023/10/21 10:02:36;;;;;;;3.70;1.50;;;9.50;99.90;;;;;;5073008;28;20028;-80
2023/10/21 10:05:08;;;;;;;6.40;1.70;;;9.50;99.90;;;;;;5072845;28;20335;-80
2023/10/21 10:07:39;;;;;;;4.65;1.70;;;9.70;99.90;;;;;;5073156;28;20450;-80
2023/10/21 10:10:10;;;;;;;4.55;1.50;;;9.60;99.90;;;;;;5059504;28;20087;-80
2023/10/21 10:12:52;;;;;;;3.78;1.60;;;9.70;99.90;;;;;;5072450;28;20047;-80
2023/10/21 10:15:33;;;;;;;4.68;1.63;;;9.70;99.90;;;;;;5072945;28;20048;-79
2023/10/21 10:18:00;;;;;;;3.70;1.50;;;9.70;99.90;;;;;;5054624;28;20037;-79
2023/10/21 10:20:27;;;;;;;3.00;1.10;;;9.60;99.90;;;;;;5073230;28;20028;-80
2023/10/21 10:22:59;;;;;;;4.10;1.35;;;9.60;99.90;;;;;;5072591;28;20024;-79
2023/10/21 10:25:32;;;;;;;3.93;1.40;;;9.70;99.90;;;;;;5072189;28;20042;-79
2023/10/21 10:28:04;;;;;;;4.63;1.60;;;9.60;99.90;;;;;;5054671;28;20459;-79
2023/10/21 10:30:31;;;;;;;3.78;1.40;;;9.60;99.90;;;;;;5071797;28;20111;-80
2023/10/21 10:32:57;;;;;;;2.92;1.13;;;9.60;99.90;;;;;;5067952;28;20616;-80
2023/10/21 10:35:31;;;;;;;2.85;1.05;;;9.70;99.90;;;;;;5071169;28;20032;-80
2023/10/21 10:38:00;;;;;;;5.93;1.50;;;9.70;99.90;;;;;;5070774;28;20039;-80
2023/10/21 10:40:35;;;;;;;4.28;1.38;;;9.70;99.90;;;;;;5060876;28;20020;-78
2023/10/21 10:43:03;;;;;;;3.63;1.10;;;9.70;99.90;;;;;;5051150;28;20036;-79
2023/10/21 10:45:31;;;;;;;2.63;1.20;;;9.70;99.90;;;;;;5051228;28;20388;-79
2023/10/21 10:48:00;;;;;;;3.28;1.35;;;9.70;99.90;;;;;;5050571;28;20170;-79
2023/10/21 10:50:26;;;;;;;2.58;1.25;;;9.80;99.90;;;;;;5033730;28;20029;-78
2023/10/21 10:52:53;;;;;;;3.42;1.13;;;9.80;99.90;;;;;;5051131;28;20329;-78
2023/10/21 10:55:19;;;;;;;1.83;1.05;;;9.90;99.90;;;;;;5051717;28;20459;-78
2023/10/21 10:57:46;;;;;;;4.13;1.20;;;10.00;99.90;;;;;;5051354;28;20483;-79
2023/10/21 11:00:20;;;;;;;2.17;1.33;;;10.00;99.90;;;;;;5058247;28;20039;-77
2023/10/21 11:02:49;;;;;;;1.92;1.27;;;10.00;99.90;;;;;;5032633;28;20097;-77
2023/10/21 11:05:22;;;;;;;1.77;1.33;;;10.00;99.90;;;;;;5055783;28;20186;-78
2023/10/21 11:07:54;;;;;;;3.72;1.40;;;10.10;99.90;;;;;;5044639;28;20029;-77
2023/10/21 11:10:22;;;;;;;4.78;1.35;;;10.10;99.90;;;;;;5058294;28;20110;-76
2023/10/21 11:12:51;;;;;;;3.97;1.70;;;10.10;99.90;;;;;;5054602;28;20140;-77
2023/10/21 11:15:18;;;;;;;3.10;1.55;;;10.10;99.90;;;;;;5050720;28;20017;-79
2023/10/21 11:17:47;;;;;;;2.28;1.30;;;10.10;99.90;;;;;;5050997;28;20037;-80
2023/10/21 11:20:16;;;;;;;1.40;1.20;;;10.10;99.90;;;;;;5051758;28;20056;-79
2023/10/21 11:22:42;;;;;;;2.53;1.30;;;10.20;99.90;;;;;;5032942;28;20047;-79
2023/10/21 11:25:08;;;;;;;1.20;0.93;;;10.20;99.90;;;;;;5051451;28;20464;-80
2023/10/21 11:27:37;;;;;;;1.25;0.80;;;10.30;99.90;;;;;;5051489;28;20033;-79
2023/10/21 11:30:07;;;;;;;2.80;1.10;;;10.30;99.90;;;;;;5049593;28;20021;-79
2023/10/21 11:32:34;;;;;;;2.70;0.95;;;10.40;99.90;;;;;;5051619;28;20044;-79
2023/10/21 11:35:04;;;;;;;2.95;0.93;;;10.40;99.90;;;;;;5051277;28;20075;-79
2023/10/21 11:37:31;;;;;;;2.28;0.77;;;10.40;99.90;;;;;;5051566;28;20051;-79
2023/10/21 11:40:01;;;;;;;3.65;0.98;;;10.40;99.90;;;;;;5050917;28;20020;-79
2023/10/21 11:42:27;;;;;;;2.25;1.00;;;10.50;99.90;;;;;;5051691;28;20104;-79
2023/10/21 11:44:57;;;;;;;2.20;1.00;;;10.60;99.90;;;;;;5051286;28;20447;-80
2023/10/21 11:47:26;;;;;;;3.10;0.90;;;10.60;99.90;;;;;;5055515;28;20040;-79
2023/10/21 11:49:54;;;;;;;1.42;0.70;;;10.60;99.90;;;;;;5056969;28;20033;-79
2023/10/21 11:52:21;;;;;;;1.77;0.73;;;10.70;99.90;;;;;;5051816;28;20478;-79
2023/10/21 12:26:21;;;;;;;2.10;0.70;;;11.10;99.90;;;;;;5055038;28;20033;-79
2023/10/21 12:39:37;;;;;;;2.10;0.80;;;11.30;99.90;;;;;;5054668;28;20067;-78
2023/10/21 12:42:17;;;;;;;1.10;0.50;;;11.20;99.90;;;;;;5053597;28;20059;-79
2023/10/21 12:44:51;;;;;;;3.55;0.50;;;11.30;99.90;;;;;;5054164;28;20021;-81
2023/10/21 12:47:18;;;;;;;2.55;0.57;;;11.40;99.90;;;;;;5054354;28;20033;-79
2023/10/21 12:49:45;;;;;;;1.88;0.60;;;11.40;99.90;;;;;;5047214;28;20028;-81
2023/10/21 12:52:11;;;;;;;0.47;0.40;;;11.30;99.90;;;;;;5053678;28;20045;-79
2023/10/21 12:54:37;;;;;;;1.65;0.47;;;11.30;99.90;;;;;;5054140;28;20029;-80
2023/10/21 12:57:04;;;;;;;1.67;0.60;;;11.40;99.90;;;;;;5053606;28;20142;-79
2023/10/21 12:59:29;;;;;;;1.25;0.40;;;11.40;99.90;;;;;;5053894;28;20114;-78
2023/10/21 13:01:55;;;;;;;2.10;0.52;;;11.30;99.90;;;;;;5052626;28;20455;-80
2023/10/21 13:04:21;;;;;;;1.10;0.80;;;11.30;99.90;;;;;;5052930;28;20147;-79
2023/10/21 13:06:47;;;;;;;0.85;0.50;;;11.40;99.90;;;;;;5052511;28;20302;-81
2023/10/21 13:09:28;;;;;;;2.20;0.68;;;11.30;99.90;;;;;;5052862;28;20122;-80
2023/10/21 13:11:54;;;;;;;2.72;0.70;;;11.40;99.90;;;;;;5051303;28;20025;-79
2023/10/21 13:14:29;;;;;;;2.53;0.80;;;11.40;99.90;;;;;;5052678;28;20043;-79
2023/10/21 13:16:55;;;;;;;2.00;0.95;;;11.40;99.90;;;;;;5052483;28;20032;-79
2023/10/21 13:19:22;;;;;;;2.47;0.60;;;11.40;99.90;;;;;;5052723;28;20021;-79
2023/10/21 13:21:49;;;;;;;1.50;0.80;;;11.40;99.90;;;;;;5052285;28;20033;-81
2023/10/21 13:24:15;;;;;;;1.85;0.90;;;11.40;99.90;;;;;;5052515;28;20425;-79
2023/10/21 13:26:42;;;;;;;1.38;0.52;;;11.40;99.90;;;;;;5052302;28;20029;-79
2023/10/21 13:29:08;;;;;;;2.63;0.80;;;11.30;99.90;;;;;;5058871;28;20063;-79
2023/10/21 13:31:34;;;;;;;1.30;0.68;;;11.20;99.90;;;;;;5072602;28;20056;-79